Aérodrome :
LOGIN :

S'inscrire | Disclaimer

   EN    FR    IT 

 










Légende :    VFR   VFR Marginal   IFR   IFR Intensif   IFR Très Intensif
Visi : 
Plafond : 
>= 8 km
>= 3000ft
5 à 8 km
1000 à 3000 ft
1500m à 5 km
500 à 1000 ft
800 à 1500m
200 à 500 ft
< 800m
< 200 ft
Symboles :   Orages  Brouillard  Fortes neiges  Fortes précipitations  Vent > 20 kt
SIGMETs :   Divers  Orages  Givrage  Turbulence  Onde Orograph.  Cendres Volcan.







- Altitude de l'aérodrome : 294 ft
- Code IATA : NAP


LIRN - Naples Capodichino

DERNIER METAR :
  • 222220Z 35003KT 310V010 9999 SCT040 SCT070 07/04 Q1004 TEMPO TSRA

METARs EXPIRÉS :
  • 222150Z 26003KT 9999 SCT040 05/03 Q1004 NOSIG
  • 222120Z 22004KT 9999 -RA FEW020 SCT040 07/04 Q1004 NOSIG
  • 222050Z 24003KT 9999 SCT040 06/03 Q1004 NOSIG
  • 222020Z 25008KT 9999 FEW020 SCT040 06/03 Q1003 RETSRA NOSIG
  • 221950Z 23014KT 180V270 6000 TSRA FEW020CB BKN040 06/04 Q1004 NOSIG

TAF TAF LIRN
Valide du 22 à 18h jusqu'au 23 à 18h UTC


221700Z 2218/2318 VRB05KT 8000 SCT020 BKN050
TEMPO 2218/2309 TSRA
BECMG 2303/2305 20010KT
Pas de NOTAMs connus pour ce terrain.



MET'MAP, la Météo Aéronautique d'un coup d'oeil ! - Copyright ORBIFLY Décembre 2007 - Disclaimer

ORBIFLY MET'MAP TEAM :

Programmation & Développement : Alexandra Zaïnal
Conception & Développement : Baudouin d'Aumeries
Co-Programmation & Développement : Marc-Olivier Méhu
Soutien technique & logistique : Manuel Goepfert

Contact : metmap@orbifly.com




SOURCES & CREDITS :

   NOAA